Flight Track Log - Related Links

Times and Time Zones

All times are in EDT time to prevent confusion due to time zone crossing. See the SEJ1022 flight status page for this flight to view local times or setup timezone preferences in your user account.

Time Position Orientation Groundspeed Altitude Reporting Facility
EDT Latitude Longitude Course Direction KTS MPH feet Rate Location/Type
Sun 11:04:00 AM 11.6208 77.1722 12° North  Level Estimated
Sun 11:05:00 AM 11.6863 77.1865 12° North  Level Estimated
Sun 11:06:00 AM 11.7518 77.2008 12° North  Level Estimated
Sun 11:07:00 AM 11.8173 77.2151 12° North  Level Estimated
Sun 11:08:00 AM 11.8827 77.2294 12° North  Level Estimated
Sun 11:09:00 AM 11.9482 77.2437 12° North  Level Estimated
Sun 11:10:00 AM 12.0137 77.2580 12° North  Level Estimated
Sun 11:11:00 AM 12.0792 77.2724 12° North  Level Estimated
Sun 11:12:00 AM 12.1447 77.2867 12° North  Level Estimated
Sun 11:13:00 AM 12.2101 77.3010 12° North  Level Estimated
Sun 11:14:00 AM 12.2756 77.3154 12° North  Level Estimated
Sun 11:15:00 AM 12.3411 77.3298 12° North  Level Estimated
Sun 11:16:00 AM 12.4066 77.3441 12° North  Level Estimated
Sun 11:17:00 AM 12.4720 77.3585 12° North  Level Estimated
Sun 11:18:00 AM 12.5375 77.3728 12° North  Level Estimated
Sun 11:19:00 AM 12.6030 77.3872 12° North  Level Estimated
Sun 11:20:00 AM 12.6685 77.4016 12° North  Level Estimated
Sun 11:21:00 AM 12.7339 77.4160 12° North  Level Estimated
Sun 11:22:00 AM 12.7994 77.4304 12° North  Level Estimated
Sun 11:23:00 AM 12.8649 77.4448 12° North  Level Estimated
Sun 11:24:00 AM 12.9304 77.4593 12° North  Level Estimated
Sun 11:25:00 AM 12.9958 77.4737 12° North  Level Estimated
Sun 11:26:00 AM 13.0613 77.4881 12° North  Level Estimated
Sun 11:27:00 AM 13.1267 77.5026 12° North  Level Estimated
Sun 11:28:00 AM 13.1922 77.5170 12° North  Level Estimated
Sun 11:29:00 AM 13.2577 77.5315 12° North  Level Estimated
Sun 11:30:00 AM 13.3231 77.5460 12° North  Level Estimated
Sun 11:31:00 AM 13.3886 77.5604 12° North  Level Estimated
Sun 11:32:00 AM 13.4541 77.5749 12° North  Level Estimated
Sun 11:33:00 AM 13.5195 77.5894 12° North  Level Estimated
Sun 11:34:00 AM 13.5850 77.6039 12° North  Level Estimated
Sun 11:35:00 AM 13.6505 77.6184 12° North  Level Estimated
Sun 11:36:00 AM 13.7159 77.6329 12° North  Level Estimated
Sun 11:37:00 AM 13.7814 77.6474 12° North  Level Estimated
Sun 11:38:00 AM 13.8468 77.6620 12° North  Level Estimated
Sun 11:39:00 AM 13.9123 77.6765 12° North  Level Estimated
Sun 11:40:00 AM 13.9777 77.6911 12° North  Level Estimated
Sun 11:41:00 AM 14.0432 77.7056 12° North  Level Estimated
Sun 11:42:00 AM 14.1087 77.7202 12° North  Level Estimated
Sun 11:43:00 AM 14.1741 77.7347 12° North  Level Estimated
Sun 11:44:00 AM 14.2396 77.7493 12° North  Level Estimated
Sun 11:45:00 AM 14.3050 77.7639 12° North  Level Estimated
Sun 11:46:00 AM 14.3705 77.7785 12° North  Level Estimated
Sun 11:47:00 AM 14.4359 77.7931 12° North  Level Estimated
Sun 11:48:00 AM 14.5014 77.8077 12° North  Level Estimated
Sun 11:49:00 AM 14.5668 77.8224 12° North  Level Estimated
Sun 11:50:00 AM 14.6323 77.8370 12° North  Level Estimated
Sun 11:51:00 AM 14.6977 77.8516 12° North  Level Estimated
Sun 11:52:00 AM 14.7632 77.8663 12° North  Level Estimated
Sun 11:53:00 AM 14.8286 77.8809 12° North  Level Estimated
Sun 11:54:00 AM 14.8940 77.8956 12° North  Level Estimated
Sun 11:55:00 AM 14.9595 77.9103 12° North  Level Estimated
Sun 11:56:00 AM 15.0249 77.9250 12° North  Level Estimated
Sun 11:57:00 AM 15.0904 77.9397 12° North  Level Estimated
Sun 11:58:00 AM 15.1558 77.9544 12° North  Level Estimated
Sun 11:59:00 AM 15.2213 77.9691 12° North  Level Estimated
Sun 12:00:00 PM 15.2867 77.9838 12° North  Level Estimated
Sun 12:01:00 PM 15.3521 77.9985 12° North  Level Estimated
Sun 12:02:00 PM 15.4176 78.0133 12° North  Level Estimated
Sun 12:03:00 PM 15.4830 78.0280 12° North  Level Estimated
Sun 12:04:00 PM 15.5484 78.0428 12° North  Level Estimated
Sun 12:05:00 PM 15.6139 78.0575 12° North  Level Estimated
Sun 12:06:00 PM 15.6793 78.0723 12° North  Level Estimated
Sun 12:07:00 PM 15.7447 78.0871 12° North  Level Estimated
Sun 12:08:00 PM 15.8102 78.1019 12° North  Level Estimated
Sun 12:09:00 PM 15.8756 78.1167 12° North  Level Estimated
Sun 12:10:00 PM 15.9410 78.1315 12° North  Level Estimated
Sun 12:11:00 PM 16.0065 78.1464 12° North  Level Estimated
Sun 12:12:00 PM 16.0719 78.1612 12° North  Level Estimated
Sun 12:13:00 PM 16.1373 78.1760 12° North  Level Estimated
Sun 12:14:00 PM 16.2027 78.1909 12° North  Level Estimated
Sun 12:15:00 PM 16.2682 78.2058 12° North  Level Estimated
Sun 12:16:00 PM 16.3336 78.2206 12° North  Level Estimated
Sun 12:17:00 PM 16.3990 78.2355 12° North  Level Estimated
Sun 12:18:00 PM 16.4644 78.2504 12° North  Level Estimated
Sun 12:19:00 PM 16.5298 78.2653 12° North  Level Estimated
Sun 12:20:00 PM 16.5952 78.2802 12° North  Level Estimated
Sun 12:21:00 PM 16.6607 78.2952 12° North  Level Estimated
Sun 12:22:00 PM 16.7261 78.3101 12° North  Level Estimated
Sun 12:23:00 PM 16.7915 78.3250 12° North  Level Estimated
Sun 12:24:00 PM 16.8569 78.3400 12° North  Level Estimated
Sun 12:25:00 PM 16.9223 78.3549 12° North  Level Estimated
Sun 12:26:00 PM 16.9877 78.3699 12° North  Level Estimated
Sun 12:27:00 PM 17.0532 78.3849 12° North  Level Estimated
Sun 12:28:00 PM 17.1186 78.3999 12° North  Level Estimated
Sun 12:29:00 PM 17.1840 78.4149 12° North  Level Estimated
Sun 12:30:00 PM 17.2494 78.4299 12° North  Level Estimated
Sun 12:31:00 PM 17.2540 78.4310 12° North  Level Estimated
Sun 12:32:00 PM 17.2540 78.4310 North  Level Estimated
Sun 12:33:00 PM 17.2540 78.4310 North  Level Estimated
Sun 12:34:00 PM 17.2540 78.4310 North  Level Estimated
Sun 12:35:00 PM 17.2540 78.4310 North  Level Estimated
Sun 12:36:00 PM 17.2540 78.4310 North  Level Estimated
Sun 12:37:00 PM 17.2540 78.4310 North  Level Estimated
Sun 12:38:00 PM 17.2540 78.4310 North  Level Estimated
Sun 12:39:00 PM 17.2540 78.4310 North  Level Estimated
Sun 12:40:00 PM 17.2540 78.4310 North  Level Estimated
Sun 12:41:00 PM 17.2540 78.4310 North  Level Estimated
Sun 12:42:00 PM 17.2540 78.4310 North  Level Estimated
Sun 12:43:00 PM 17.2540 78.4310 North  Level Estimated
Sun 12:44:00 PM 17.2540 78.4310 North  Level Estimated
Sun 12:45:00 PM 17.2540 78.4310 North  Level Estimated
Sun 12:46:00 PM 17.2540 78.4310 North  Level Estimated

Login

Don't have an account? Register now (free) for customized features, flight alerts, and more!